createdAt,value
2023-01-04T00:01:18.701Z,1.80
2023-01-04T00:03:47.236Z,1.52
2023-01-04T00:06:17.539Z,1.40
2023-01-04T00:08:45.556Z,2.22
2023-01-04T00:11:15.625Z,1.60
2023-01-04T00:13:43.432Z,2.13
2023-01-04T00:16:15.406Z,1.73
2023-01-04T00:18:43.473Z,1.88
2023-01-04T00:21:13.457Z,1.67
2023-01-04T00:23:43.244Z,1.45
2023-01-04T00:26:12.083Z,1.92
2023-01-04T00:28:40.258Z,2.45
2023-01-04T00:31:10.546Z,1.67
2023-01-04T00:33:40.039Z,1.77
2023-01-04T00:36:10.541Z,1.77
2023-01-04T00:38:38.996Z,1.25
2023-01-04T00:41:07.986Z,1.30
2023-01-04T00:43:36.020Z,1.60
2023-01-04T00:46:04.083Z,1.35
2023-01-04T00:48:33.561Z,1.60
2023-01-04T00:51:04.897Z,1.92
2023-01-04T00:53:32.670Z,1.40
2023-01-04T00:56:01.759Z,1.52
2023-01-04T00:58:29.611Z,1.83
2023-01-04T01:00:57.387Z,1.23
2023-01-04T01:03:25.399Z,1.60
2023-01-04T01:05:53.243Z,2.13
2023-01-04T01:08:28.164Z,1.65
2023-01-04T01:10:56.234Z,2.25
2023-01-04T01:13:24.517Z,1.63
2023-01-04T01:15:52.388Z,1.60
2023-01-04T01:18:20.228Z,1.67
2023-01-04T01:20:48.322Z,1.30
2023-01-04T01:23:16.696Z,1.13
2023-01-04T01:25:45.878Z,1.25
2023-01-04T01:28:13.694Z,1.48
2023-01-04T01:30:42.748Z,1.23
2023-01-04T01:33:11.717Z,1.58
2023-01-04T01:35:39.539Z,1.35
2023-01-04T01:38:07.365Z,1.25
2023-01-04T01:40:35.186Z,1.08
2023-01-04T01:43:04.341Z,1.27
2023-01-04T01:45:34.461Z,1.50
2023-01-04T01:48:11.466Z,1.30
2023-01-04T01:50:45.556Z,1.30
2023-01-04T01:53:13.702Z,1.10
2023-01-04T01:55:42.982Z,1.35
2023-01-04T01:58:19.246Z,1.75
2023-01-04T02:00:47.083Z,1.30
2023-01-04T02:03:19.401Z,0.85
2023-01-04T02:05:51.073Z,0.98
2023-01-04T02:08:22.431Z,1.00
2023-01-04T02:10:50.282Z,1.42
2023-01-04T02:13:23.637Z,1.48
2023-01-04T02:16:03.593Z,0.90
2023-01-04T02:18:35.588Z,1.20
2023-01-04T02:21:08.423Z,1.10
2023-01-04T02:24:11.275Z,1.42
2023-01-04T02:27:20.498Z,0.70
2023-01-04T02:30:31.877Z,1.23
2023-01-04T02:33:17.066Z,1.27
2023-01-04T02:35:54.518Z,0.90
2023-01-04T02:38:29.491Z,1.80
2023-01-04T02:41:06.506Z,0.80
2023-01-04T02:43:57.699Z,1.05
2023-01-04T02:46:37.442Z,1.08
2023-01-04T02:49:24.044Z,1.13
2023-01-04T02:51:51.917Z,0.80
2023-01-04T02:54:25.145Z,0.80
2023-01-04T02:57:18.999Z,0.93
2023-01-04T03:00:03.966Z,0.80
2023-01-04T03:03:07.622Z,0.70
2023-01-04T03:06:08.115Z,0.63
2023-01-04T03:08:40.668Z,0.88
2023-01-04T03:11:31.127Z,0.70
2023-01-04T03:14:00.751Z,0.60
2023-01-04T03:16:30.482Z,1.08
2023-01-04T03:19:04.220Z,0.60
2023-01-04T03:21:34.156Z,0.80
2023-01-04T03:24:22.641Z,0.60
2023-01-04T03:27:20.638Z,0.75
2023-01-04T03:30:13.265Z,0.88
2023-01-04T03:33:05.642Z,0.73
2023-01-04T03:35:42.174Z,0.68
2023-01-04T03:38:34.571Z,0.85
2023-01-04T03:41:23.502Z,0.65
2023-01-04T03:44:14.827Z,0.68
2023-01-04T03:47:04.571Z,0.70
2023-01-04T03:49:38.209Z,0.60
2023-01-04T03:52:08.967Z,0.70
2023-01-04T03:54:40.535Z,0.63
2023-01-04T03:57:10.575Z,0.70
2023-01-04T03:59:42.833Z,0.50
2023-01-04T04:02:14.075Z,0.55
2023-01-04T04:05:00.099Z,0.68
2023-01-04T04:07:45.262Z,0.50
2023-01-04T04:10:14.494Z,0.70
2023-01-04T04:12:42.260Z,0.65
2023-01-04T04:15:11.054Z,0.75
2023-01-04T04:17:38.870Z,0.60
2023-01-04T04:20:07.605Z,0.70
2023-01-04T04:22:35.677Z,0.40
2023-01-04T04:25:03.424Z,0.70
2023-01-04T04:27:32.807Z,0.77
2023-01-04T04:30:00.747Z,0.52
2023-01-04T04:32:28.518Z,0.70
2023-01-04T04:34:56.256Z,1.20
2023-01-04T04:37:25.268Z,0.50
2023-01-04T04:39:53.099Z,0.70
2023-01-04T04:42:19.884Z,0.80
2023-01-04T04:44:49.000Z,1.00
2023-01-04T04:47:16.928Z,0.80
2023-01-04T04:49:44.718Z,0.60
2023-01-04T04:52:12.488Z,0.75
2023-01-04T04:54:40.314Z,0.70
2023-01-04T04:57:08.101Z,0.85
2023-01-04T04:59:37.604Z,0.80
2023-01-04T05:02:07.222Z,0.85
2023-01-04T05:04:35.174Z,0.70
2023-01-04T05:07:07.533Z,0.80
2023-01-04T05:09:38.657Z,0.70
2023-01-04T05:12:24.507Z,0.82
2023-01-04T05:14:52.311Z,0.93
2023-01-04T05:17:21.434Z,1.15
2023-01-04T05:19:49.197Z,0.90
2023-01-04T05:22:16.982Z,0.65
2023-01-04T05:24:44.829Z,0.88
2023-01-04T05:27:12.641Z,1.00
2023-01-04T05:30:03.081Z,1.23
2023-01-04T05:32:32.211Z,0.90
2023-01-04T05:35:00.021Z,1.15
2023-01-04T05:37:27.814Z,0.82
2023-01-04T05:39:55.625Z,0.90
2023-01-04T05:42:26.537Z,0.98
2023-01-04T05:44:54.903Z,1.20
2023-01-04T05:47:23.073Z,0.90
2023-01-04T05:49:52.245Z,0.68
2023-01-04T05:52:20.822Z,1.25
2023-01-04T05:54:48.885Z,0.80
2023-01-04T05:57:17.266Z,1.15
2023-01-04T05:59:45.359Z,0.90
2023-01-04T06:02:18.279Z,0.95
2023-01-04T06:04:46.167Z,0.88
2023-01-04T06:07:15.940Z,0.90
2023-01-04T06:09:43.812Z,1.10
2023-01-04T06:12:12.291Z,0.90
2023-01-04T06:14:40.408Z,0.82
2023-01-04T06:17:09.352Z,0.82
2023-01-04T06:19:37.405Z,1.10
2023-01-04T06:22:05.639Z,0.80
2023-01-04T06:24:35.410Z,0.75
2023-01-04T06:27:03.817Z,0.80
2023-01-04T06:29:31.618Z,1.08
2023-01-04T06:31:59.537Z,1.23
2023-01-04T06:34:31.088Z,0.93
2023-01-04T06:36:59.574Z,1.02
2023-01-04T06:39:27.359Z,1.20
2023-01-04T06:42:03.767Z,0.70
2023-01-04T06:44:33.827Z,0.73
2023-01-04T06:47:01.582Z,0.70
2023-01-04T06:49:29.334Z,0.90
2023-01-04T06:51:57.112Z,0.82
2023-01-04T06:54:24.898Z,1.00
2023-01-04T06:56:52.674Z,1.10
2023-01-04T06:59:21.812Z,0.70
2023-01-04T07:01:49.644Z,0.90
2023-01-04T07:04:17.788Z,0.70
2023-01-04T07:06:45.649Z,0.68
2023-01-04T07:09:13.424Z,0.60
2023-01-04T07:11:41.237Z,0.93
2023-01-04T07:14:09.080Z,0.70
2023-01-04T07:16:38.401Z,0.70
2023-01-04T07:19:07.310Z,0.80
2023-01-04T07:21:35.134Z,0.70
2023-01-04T07:24:02.921Z,0.50
2023-01-04T07:26:30.745Z,0.95
2023-01-04T07:29:17.142Z,0.65
2023-01-04T07:31:48.608Z,0.75
2023-01-04T07:34:17.832Z,0.90
2023-01-04T07:36:45.649Z,0.52
2023-01-04T07:39:13.670Z,0.70
2023-01-04T07:41:42.786Z,1.00
2023-01-04T07:44:11.836Z,0.60
2023-01-04T07:46:40.525Z,0.93
2023-01-04T07:49:16.936Z,0.80
2023-01-04T07:51:46.639Z,0.80
2023-01-04T07:54:15.007Z,0.80
2023-01-04T07:56:42.873Z,1.00
2023-01-04T07:59:12.325Z,0.70
2023-01-04T08:01:40.617Z,0.80
2023-01-04T08:04:11.657Z,0.63
2023-01-04T08:06:41.158Z,0.88
2023-01-04T08:09:09.168Z,1.08
2023-01-04T08:11:36.965Z,1.02
2023-01-04T08:14:05.172Z,1.27
2023-01-04T08:16:34.845Z,0.70
2023-01-04T08:19:05.429Z,0.70
2023-01-04T08:21:36.759Z,0.70
2023-01-04T08:24:05.521Z,0.70
2023-01-04T08:26:33.883Z,0.75
2023-01-04T08:29:01.777Z,0.68
2023-01-04T08:31:32.921Z,0.70
2023-01-04T08:34:08.466Z,0.85
2023-01-04T08:36:45.863Z,0.85
2023-01-04T08:39:13.736Z,0.80
2023-01-04T08:42:07.516Z,0.75
2023-01-04T08:44:39.766Z,1.15
2023-01-04T08:47:07.566Z,0.98
2023-01-04T08:49:35.558Z,0.90
2023-01-04T08:52:05.073Z,0.75
2023-01-04T08:54:34.007Z,0.95
2023-01-04T08:57:01.803Z,1.08
2023-01-04T08:59:29.903Z,0.70
2023-01-04T09:02:04.882Z,0.85
2023-01-04T09:04:33.479Z,0.88
2023-01-04T09:07:01.327Z,0.90
2023-01-04T09:09:30.933Z,0.88
2023-01-04T09:11:59.770Z,1.00
2023-01-04T09:14:27.751Z,0.55
2023-01-04T09:16:55.586Z,1.25
2023-01-04T09:19:23.375Z,0.88
2023-01-04T09:21:51.275Z,0.70
2023-01-04T09:24:19.403Z,0.82
2023-01-04T09:26:49.225Z,1.13
2023-01-04T09:29:17.189Z,1.38
2023-01-04T09:31:45.013Z,1.23
2023-01-04T09:34:15.795Z,0.88
2023-01-04T09:36:45.656Z,0.60
2023-01-04T09:39:21.535Z,0.55
2023-01-04T09:41:58.128Z,0.77
2023-01-04T09:45:21.405Z,0.47
2023-01-04T09:47:36.665Z,1.35
2023-01-04T09:50:11.064Z,0.80
2023-01-04T09:52:50.574Z,0.75
2023-01-04T09:55:37.504Z,0.95
2023-01-04T09:58:18.486Z,0.68
2023-01-04T10:00:48.017Z,0.68
2023-01-04T10:03:21.029Z,0.77
2023-01-04T10:05:49.432Z,1.13
2023-01-04T10:08:20.301Z,1.15
2023-01-04T10:10:51.853Z,0.90
2023-01-04T10:13:49.582Z,0.70
2023-01-04T10:16:52.660Z,0.60
2023-01-04T10:22:27.035Z,0.75
2023-01-04T10:25:08.622Z,0.73
2023-01-04T10:27:47.193Z,1.15
2023-01-04T10:30:36.266Z,1.00
2023-01-04T10:33:12.094Z,1.05
2023-01-04T10:35:43.592Z,0.93
2023-01-04T10:38:20.811Z,1.05
2023-01-04T10:40:50.638Z,0.80
2023-01-04T10:44:09.922Z,0.80
2023-01-04T10:46:28.217Z,0.90
2023-01-04T10:49:01.803Z,0.93
2023-01-04T10:51:36.516Z,1.60
2023-01-04T10:54:11.647Z,1.10
2023-01-04T10:56:45.733Z,0.77
2023-01-04T10:59:20.202Z,1.13
2023-01-04T11:01:55.426Z,0.70
2023-01-04T11:04:29.033Z,1.60
2023-01-04T11:07:03.743Z,0.60
2023-01-04T11:09:39.603Z,0.93
2023-01-04T11:12:11.290Z,0.90
2023-01-04T11:14:39.157Z,0.68
2023-01-04T11:17:11.861Z,0.75
2023-01-04T11:19:40.880Z,0.80
2023-01-04T11:22:15.357Z,1.15
2023-01-04T11:25:07.752Z,0.75
2023-01-04T11:27:42.957Z,0.80
2023-01-04T11:30:18.457Z,0.80
2023-01-04T11:32:55.988Z,0.68
2023-01-04T11:35:44.138Z,1.02
2023-01-04T11:38:15.471Z,0.82
2023-01-04T11:40:55.007Z,0.75
2023-01-04T11:43:24.085Z,1.13
2023-01-04T11:45:58.081Z,0.95
2023-01-04T11:48:42.076Z,0.60
2023-01-04T11:51:21.993Z,0.68
2023-01-04T11:53:58.544Z,0.70
2023-01-04T11:56:29.449Z,0.60
2023-01-04T11:59:13.962Z,0.75
2023-01-04T12:01:45.900Z,0.68
2023-01-04T12:04:19.565Z,0.57
2023-01-04T12:06:51.853Z,0.60
2023-01-04T12:09:21.290Z,0.90
2023-01-04T12:11:51.873Z,0.73
2023-01-04T12:14:23.665Z,0.60
2023-01-04T12:17:02.035Z,0.55
2023-01-04T12:19:31.941Z,0.95
2023-01-04T12:22:03.454Z,0.70
2023-01-04T12:24:33.618Z,0.93
2023-01-04T12:27:02.620Z,0.80
2023-01-04T12:29:45.941Z,0.55
2023-01-04T12:32:40.901Z,0.60
2023-01-04T12:35:42.508Z,0.63
2023-01-04T12:38:12.256Z,0.50
2023-01-04T12:40:56.201Z,0.50
2023-01-04T12:43:28.096Z,0.45
2023-01-04T12:47:03.996Z,0.55
2023-01-04T12:50:00.077Z,0.50
2023-01-04T12:56:00.761Z,0.80
2023-01-04T12:59:24.657Z,0.38
2023-01-04T13:02:10.456Z,0.75
2023-01-04T13:04:42.525Z,0.70
2023-01-04T13:07:17.163Z,0.73
2023-01-04T13:09:52.287Z,0.50
2023-01-04T13:12:44.478Z,0.70
2023-01-04T13:15:20.945Z,0.52
2023-01-04T13:17:49.201Z,0.52
2023-01-04T13:20:20.396Z,0.60
2023-01-04T13:22:53.007Z,0.70
2023-01-04T13:25:22.280Z,0.77
2023-01-04T13:27:59.539Z,0.85
2023-01-04T13:30:35.705Z,0.90
2023-01-04T13:33:28.131Z,0.60
2023-01-04T13:36:04.465Z,0.60
2023-01-04T13:38:35.449Z,0.60
2023-01-04T13:41:18.705Z,0.50
2023-01-04T13:44:02.212Z,0.45
2023-01-04T13:46:30.067Z,0.50
2023-01-04T13:49:03.288Z,0.47
2023-01-04T13:51:37.872Z,0.57
2023-01-04T13:54:08.067Z,0.73
2023-01-04T13:56:36.365Z,0.50
2023-01-04T13:59:05.650Z,0.40
2023-01-04T14:01:36.553Z,0.57
2023-01-04T14:04:07.322Z,0.40
2023-01-04T14:06:40.989Z,0.40
2023-01-04T14:09:16.291Z,0.45
2023-01-04T14:12:06.168Z,0.45
2023-01-04T14:14:49.937Z,0.50
2023-01-04T14:17:21.837Z,0.50
2023-01-04T14:19:55.513Z,0.73
2023-01-04T14:22:29.148Z,0.57
2023-01-04T14:25:14.805Z,0.50
2023-01-04T14:27:43.943Z,0.73
2023-01-04T14:30:26.431Z,0.70
2023-01-04T14:32:56.041Z,0.70
2023-01-04T14:35:24.178Z,0.90
2023-01-04T14:37:52.475Z,0.85
2023-01-04T14:40:26.827Z,0.80
2023-01-04T14:42:54.960Z,1.13
2023-01-04T14:45:22.919Z,0.80
2023-01-04T14:47:52.392Z,0.93
2023-01-04T14:50:20.395Z,1.30
2023-01-04T14:52:52.345Z,0.75
2023-01-04T14:55:20.885Z,0.80
2023-01-04T14:57:48.754Z,1.20
2023-01-04T15:00:19.925Z,1.33
2023-01-04T15:02:50.779Z,1.10
2023-01-04T15:05:20.722Z,1.15
2023-01-04T15:07:48.990Z,1.30
2023-01-04T15:10:22.307Z,1.27
2023-01-04T15:12:50.194Z,1.23
2023-01-04T15:15:18.161Z,1.63
2023-01-04T15:17:46.056Z,1.40
2023-01-04T15:20:14.363Z,1.50
2023-01-04T15:22:43.908Z,1.60
2023-01-04T15:25:12.556Z,1.40
2023-01-04T15:27:42.736Z,2.22
2023-01-04T15:30:12.318Z,1.60
2023-01-04T15:32:40.777Z,1.80
2023-01-04T15:35:09.365Z,1.40
2023-01-04T15:37:37.460Z,2.33
2023-01-04T15:40:07.731Z,1.95
2023-01-04T15:42:53.061Z,2.00
2023-01-04T15:45:22.870Z,2.10
2023-01-04T15:47:50.725Z,1.63
2023-01-04T15:50:18.966Z,1.90
2023-01-04T15:52:46.800Z,1.83
2023-01-04T15:55:17.476Z,2.47
2023-01-04T15:57:45.434Z,2.33
2023-01-04T16:00:14.595Z,1.90
2023-01-04T16:02:42.813Z,2.13
2023-01-04T16:05:11.168Z,1.90
2023-01-04T16:07:39.064Z,2.10
2023-01-04T16:10:08.124Z,1.92
2023-01-04T16:12:44.587Z,1.88
2023-01-04T16:15:15.580Z,2.60
2023-01-04T16:17:44.383Z,2.17
2023-01-04T16:20:14.638Z,4.05
2023-01-04T16:22:43.032Z,2.45
2023-01-04T16:25:12.519Z,3.15
2023-01-04T16:27:43.998Z,2.13
2023-01-04T16:30:14.657Z,2.47
2023-01-04T16:32:43.753Z,2.28
2023-01-04T16:35:11.942Z,2.80
2023-01-04T16:37:39.779Z,2.95
2023-01-04T16:40:09.519Z,2.33
2023-01-04T16:42:38.173Z,3.10
2023-01-04T16:45:08.647Z,2.10
2023-01-04T16:47:41.850Z,3.95
2023-01-04T16:50:10.783Z,2.75
2023-01-04T16:52:38.688Z,2.20
2023-01-04T16:55:07.875Z,3.47
2023-01-04T16:57:35.819Z,2.80
2023-01-04T17:00:04.945Z,2.80
2023-01-04T17:02:34.286Z,3.08
2023-01-04T17:05:02.328Z,2.40
2023-01-04T17:07:32.947Z,2.90
2023-01-04T17:10:01.629Z,2.40
2023-01-04T17:12:47.126Z,4.18
2023-01-04T17:15:42.579Z,4.03
2023-01-04T17:18:05.616Z,3.30
2023-01-04T17:20:33.709Z,3.03
2023-01-04T17:23:01.527Z,3.33
2023-01-04T17:25:29.402Z,3.95
2023-01-04T17:27:57.339Z,3.15
2023-01-04T17:30:25.137Z,3.25
2023-01-04T17:32:53.212Z,4.07
2023-01-04T17:35:22.354Z,3.85
2023-01-04T17:37:50.154Z,3.55
2023-01-04T17:40:22.932Z,4.30
2023-01-04T17:42:51.291Z,3.47
2023-01-04T17:45:19.011Z,5.18
2023-01-04T17:47:46.794Z,5.43
2023-01-04T17:50:15.960Z,5.10
2023-01-04T17:52:45.564Z,6.57
2023-01-04T17:55:13.528Z,4.13
2023-01-04T18:00:14.591Z,4.78
2023-01-04T18:02:43.059Z,4.47
2023-01-04T18:05:11.927Z,5.75
2023-01-04T18:07:39.916Z,4.22
2023-01-04T18:10:20.606Z,4.35
2023-01-04T18:12:54.696Z,5.60
2023-01-04T18:15:22.513Z,5.72
2023-01-04T18:17:50.345Z,5.38
2023-01-04T18:20:24.597Z,4.50
2023-01-04T18:22:53.050Z,5.38
2023-01-04T18:25:22.279Z,5.72
2023-01-04T18:27:50.095Z,7.50
2023-01-04T18:30:18.423Z,5.35
2023-01-04T18:32:46.268Z,5.57
2023-01-04T18:35:14.178Z,5.07
2023-01-04T18:37:44.622Z,5.72
2023-01-04T18:40:13.080Z,5.72
2023-01-04T18:42:47.000Z,6.38
2023-01-04T18:45:14.840Z,6.43
2023-01-04T18:47:42.716Z,6.80
2023-01-04T18:50:11.172Z,6.45
2023-01-04T18:52:39.054Z,7.38
2023-01-04T18:55:07.412Z,5.97
2023-01-04T18:57:36.356Z,6.63
2023-01-04T19:00:06.304Z,5.72
2023-01-04T19:02:34.379Z,7.10
2023-01-04T19:05:02.651Z,5.15
2023-01-04T19:07:30.488Z,6.05
2023-01-04T19:09:58.261Z,7.15
2023-01-04T19:12:26.046Z,6.80
2023-01-04T19:14:53.816Z,6.13
2023-01-04T19:17:24.589Z,7.30
2023-01-04T19:19:52.722Z,7.60
2023-01-04T19:22:20.519Z,6.50
2023-01-04T19:24:48.335Z,6.28
2023-01-04T19:27:16.167Z,6.03
2023-01-04T19:29:44.320Z,7.63
2023-01-04T19:32:12.211Z,6.20
2023-01-04T19:34:41.526Z,6.32
2023-01-04T19:37:09.300Z,6.97
2023-01-04T19:39:37.219Z,7.70
2023-01-04T19:42:05.194Z,7.30
2023-01-04T19:44:32.976Z,5.95
2023-01-04T19:47:00.898Z,9.05
2023-01-04T19:49:28.878Z,7.82
2023-01-04T19:51:58.042Z,6.25
2023-01-04T19:54:26.050Z,6.07
2023-01-04T19:56:54.366Z,5.43
2023-01-04T19:59:22.335Z,6.88
2023-01-04T20:01:50.185Z,6.03
2023-01-04T20:04:18.375Z,6.47
2023-01-04T20:06:46.177Z,6.45
2023-01-04T20:09:15.605Z,5.93
2023-01-04T20:11:43.409Z,7.13
2023-01-04T20:14:11.364Z,5.70
2023-01-04T20:16:39.304Z,7.40
2023-01-04T20:19:07.130Z,8.05
2023-01-04T20:21:34.905Z,6.22
2023-01-04T20:24:02.803Z,6.22
2023-01-04T20:26:32.021Z,6.43
2023-01-04T20:29:00.224Z,6.15
2023-01-04T20:31:28.062Z,6.13
2023-01-04T20:33:57.084Z,6.70
2023-01-04T20:36:29.299Z,6.97
2023-01-04T20:38:59.592Z,5.80
2023-01-04T20:41:29.241Z,6.68
2023-01-04T20:43:57.713Z,6.32
2023-01-04T20:46:27.303Z,5.93
2023-01-04T20:48:55.839Z,5.57
2023-01-04T20:51:27.884Z,7.20
2023-01-04T20:53:55.808Z,7.25
2023-01-04T20:56:25.964Z,6.78
2023-01-04T20:58:54.366Z,7.25
2023-01-04T21:01:25.393Z,6.00
2023-01-04T21:03:53.426Z,6.80
2023-01-04T21:06:23.152Z,6.25
2023-01-04T21:08:52.568Z,7.68
2023-01-04T21:11:20.559Z,6.60
2023-01-04T21:13:50.235Z,6.13
2023-01-04T21:16:18.073Z,7.90
2023-01-04T21:18:47.377Z,7.28
2023-01-04T21:21:17.758Z,6.93
2023-01-04T21:23:46.913Z,5.05
2023-01-04T21:26:16.733Z,5.68
2023-01-04T21:28:44.907Z,6.40
2023-01-04T21:31:13.717Z,7.40
2023-01-04T21:33:41.491Z,5.10
2023-01-04T21:36:16.137Z,5.75
2023-01-04T21:38:44.197Z,6.65
2023-01-04T21:41:13.732Z,6.03
2023-01-04T21:43:42.496Z,6.53
2023-01-04T21:46:12.657Z,6.10
2023-01-04T21:48:40.513Z,6.00
2023-01-04T21:51:09.296Z,5.88
2023-01-04T21:53:39.772Z,8.02
2023-01-04T21:56:09.540Z,6.45
2023-01-04T21:58:37.582Z,8.38
2023-01-04T22:01:10.291Z,5.55
2023-01-04T22:03:38.274Z,6.68
2023-01-04T22:06:06.982Z,4.72
2023-01-04T22:08:35.225Z,7.13
2023-01-04T22:11:05.029Z,7.18
2023-01-04T22:13:33.183Z,6.03
2023-01-04T22:16:01.081Z,7.63
2023-01-04T22:18:28.900Z,6.15
2023-01-04T22:21:02.753Z,5.15
2023-01-04T22:23:31.055Z,5.88
2023-01-04T22:25:59.038Z,5.85
2023-01-04T22:28:33.247Z,5.80
2023-01-04T22:31:06.527Z,6.25
2023-01-04T22:33:36.227Z,6.45
2023-01-04T22:36:06.244Z,6.45
2023-01-04T22:38:36.000Z,6.18
2023-01-04T22:41:07.299Z,5.57
2023-01-04T22:43:36.683Z,6.22
2023-01-04T22:46:06.255Z,6.35
2023-01-04T22:48:34.589Z,6.80
2023-01-04T22:51:06.777Z,6.60
2023-01-04T22:53:34.582Z,7.10
2023-01-04T22:56:22.348Z,5.97
2023-01-04T22:58:55.160Z,6.75
2023-01-04T23:01:24.088Z,4.72
2023-01-04T23:03:52.852Z,6.30
2023-01-04T23:06:21.279Z,7.03
2023-01-04T23:08:49.829Z,6.50
2023-01-04T23:11:20.196Z,5.18
2023-01-04T23:13:47.999Z,5.20
2023-01-04T23:16:17.965Z,6.05
2023-01-04T23:18:45.798Z,6.15
2023-01-04T23:21:14.461Z,7.18
2023-01-04T23:23:42.629Z,7.00
2023-01-04T23:26:15.125Z,5.15
2023-01-04T23:28:42.984Z,6.28
2023-01-04T23:31:13.491Z,5.38
2023-01-04T23:33:43.241Z,6.05
2023-01-04T23:36:12.882Z,5.22
2023-01-04T23:38:41.787Z,5.63
2023-01-04T23:41:10.227Z,6.22
2023-01-04T23:43:39.810Z,5.85
2023-01-04T23:48:36.586Z,5.43
2023-01-04T23:51:06.370Z,5.82
2023-01-04T23:53:34.768Z,5.68
2023-01-04T23:56:05.607Z,4.65
2023-01-04T23:58:34.059Z,5.85
